Bridgeport, Nebraska
Current Conditions -  °F | °C
As of 7:53 PM on Friday 21 Nov 2014 (Local Time) from KBFF Reporting Station
Clear Clear  
Wind Chill: 26°   Ceiling: Unl
Heat Index: 31°   Visibility: 10mi
Dew Point: 20°   Wind: 5mph
Humidity: 64%   Direction: 340°NNW
Pressure: 29.9"   Gusts: NA
Location:  41.67°N, 103.1°W
Report Text: KBFF 220253Z AUTO 34004KT 10SM CLR M01/M07 A2990 RMK AO2 SLP148 T10061067 53004
Loading
Personal Weather Stations






























Interactive Weather Map New forecast layout! Learn more

10-Day Weather Forecast

Advertisements
Track Severe Weather on mobile